sensor_id;sensor_type;location;lat;lon;timestamp;pressure;altitude;pressure_sealevel;temperature;humidity
68301;BME280;55146;47.468;18.806;2023-04-20T00:00:07;99950.47;;;9.55;80.15
68301;BME280;55146;47.468;18.806;2023-04-20T00:02:36;99942.50;;;9.59;80.15
68301;BME280;55146;47.468;18.806;2023-04-20T00:05:05;99945.81;;;9.61;80.15
68301;BME280;55146;47.468;18.806;2023-04-20T00:07:32;99943.59;;;9.63;80.14
68301;BME280;55146;47.468;18.806;2023-04-20T00:09:57;99943.59;;;9.63;80.23
68301;BME280;55146;47.468;18.806;2023-04-20T00:12:22;99943.91;;;9.61;80.38
68301;BME280;55146;47.468;18.806;2023-04-20T00:14:48;99942.81;;;9.62;80.69
68301;BME280;55146;47.468;18.806;2023-04-20T00:17:13;99937.59;;;9.66;81.22
68301;BME280;55146;47.468;18.806;2023-04-20T00:19:39;99939.25;;;9.62;81.41
68301;BME280;55146;47.468;18.806;2023-04-20T00:22:04;99948.00;;;9.64;81.53
68301;BME280;55146;47.468;18.806;2023-04-20T00:24:29;99947.75;;;9.65;81.83
68301;BME280;55146;47.468;18.806;2023-04-20T00:26:55;99943.91;;;9.66;82.09
68301;BME280;55146;47.468;18.806;2023-04-20T00:29:20;99945.81;;;9.66;81.96
68301;BME280;55146;47.468;18.806;2023-04-20T00:31:46;99945.00;;;9.65;81.55
68301;BME280;55146;47.468;18.806;2023-04-20T00:34:11;99943.34;;;9.64;81.50
68301;BME280;55146;47.468;18.806;2023-04-20T00:36:36;99945.25;;;9.64;81.54
68301;BME280;55146;47.468;18.806;2023-04-20T00:39:02;99942.81;;;9.62;81.51
68301;BME280;55146;47.468;18.806;2023-04-20T00:41:29;99950.22;;;9.62;81.19
68301;BME280;55146;47.468;18.806;2023-04-20T00:43:55;99953.22;;;9.55;80.78
68301;BME280;55146;47.468;18.806;2023-04-20T00:46:20;99947.72;;;9.50;80.41
68301;BME280;55146;47.468;18.806;2023-04-20T00:48:46;99944.41;;;9.43;80.70
68301;BME280;55146;47.468;18.806;2023-04-20T00:51:14;99939.44;;;9.40;80.82
68301;BME280;55146;47.468;18.806;2023-04-20T00:53:39;99950.44;;;9.40;80.69
68301;BME280;55146;47.468;18.806;2023-04-20T00:56:05;99949.34;;;9.41;80.66
68301;BME280;55146;47.468;18.806;2023-04-20T00:58:31;99948.78;;;9.39;80.55
68301;BME280;55146;47.468;18.806;2023-04-20T01:00:57;99950.16;;;9.31;80.31
68301;BME280;55146;47.468;18.806;2023-04-20T01:03:22;99954.78;;;9.26;80.29
68301;BME280;55146;47.468;18.806;2023-04-20T01:05:48;99951.75;;;9.27;80.45
68301;BME280;55146;47.468;18.806;2023-04-20T01:08:13;99951.75;;;9.17;80.30
68301;BME280;55146;47.468;18.806;2023-04-20T01:10:39;99947.59;;;9.15;80.13
68301;BME280;55146;47.468;18.806;2023-04-20T01:13:04;99944.00;;;9.09;80.24
68301;BME280;55146;47.468;18.806;2023-04-20T01:15:29;99943.47;;;9.07;80.27
68301;BME280;55146;47.468;18.806;2023-04-20T01:17:55;99953.06;;;9.05;80.42
68301;BME280;55146;47.468;18.806;2023-04-20T01:20:22;99947.53;;;8.95;79.83
68301;BME280;55146;47.468;18.806;2023-04-20T01:22:50;99946.94;;;8.87;79.78
68301;BME280;55146;47.468;18.806;2023-04-20T01:25:16;99943.06;;;8.83;79.97
68301;BME280;55146;47.468;18.806;2023-04-20T01:27:42;99946.03;;;8.77;79.99
68301;BME280;55146;47.468;18.806;2023-04-20T01:30:09;99942.50;;;8.76;80.37
68301;BME280;55146;47.468;18.806;2023-04-20T01:32:35;99941.94;;;8.74;80.59
68301;BME280;55146;47.468;18.806;2023-04-20T01:35:01;99944.38;;;8.71;80.35
68301;BME280;55146;47.468;18.806;2023-04-20T01:37:27;99944.09;;;8.67;80.29
68301;BME280;55146;47.468;18.806;2023-04-20T01:39:53;99946.00;;;8.67;80.04
68301;BME280;55146;47.468;18.806;2023-04-20T01:42:18;99945.16;;;8.61;80.09
68301;BME280;55146;47.468;18.806;2023-04-20T01:44:44;99941.84;;;8.59;80.11
68301;BME280;55146;47.468;18.806;2023-04-20T01:47:09;99939.09;;;8.59;80.52
68301;BME280;55146;47.468;18.806;2023-04-20T01:49:34;99934.16;;;8.56;80.22
68301;BME280;55146;47.468;18.806;2023-04-20T01:52:00;99937.97;;;8.50;80.04
68301;BME280;55146;47.468;18.806;2023-04-20T01:54:25;99936.03;;;8.45;80.33
68301;BME280;55146;47.468;18.806;2023-04-20T01:56:50;99940.09;;;8.43;80.56
68301;BME280;55146;47.468;18.806;2023-04-20T01:59:15;99944.19;;;8.40;80.66
68301;BME280;55146;47.468;18.806;2023-04-20T02:01:41;99938.16;;;8.38;80.64
68301;BME280;55146;47.468;18.806;2023-04-20T02:04:06;99946.38;;;8.38;80.62
68301;BME280;55146;47.468;18.806;2023-04-20T02:06:31;99944.97;;;8.36;80.49
68301;BME280;55146;47.468;18.806;2023-04-20T02:08:57;99940.84;;;8.33;80.51
68301;BME280;55146;47.468;18.806;2023-04-20T02:11:22;99939.47;;;8.31;80.55
68301;BME280;55146;47.468;18.806;2023-04-20T02:13:48;99939.94;;;8.28;80.66
68301;BME280;55146;47.468;18.806;2023-04-20T02:16:13;99936.09;;;8.24;80.43
68301;BME280;55146;47.468;18.806;2023-04-20T02:18:38;99933.91;;;8.21;80.26
68301;BME280;55146;47.468;18.806;2023-04-20T02:21:04;99940.72;;;8.18;80.64
68301;BME280;55146;47.468;18.806;2023-04-20T02:23:29;99931.09;;;8.16;80.67
68301;BME280;55146;47.468;18.806;2023-04-20T02:25:55;99933.84;;;8.16;80.66
68301;BME280;55146;47.468;18.806;2023-04-20T02:28:20;99932.72;;;8.11;81.01
68301;BME280;55146;47.468;18.806;2023-04-20T02:30:46;99936.78;;;8.09;81.13
68301;BME280;55146;47.468;18.806;2023-04-20T02:33:11;99928.88;;;8.07;80.92
68301;BME280;55146;47.468;18.806;2023-04-20T02:35:36;99939.25;;;8.05;80.89
68301;BME280;55146;47.468;18.806;2023-04-20T02:38:02;99935.94;;;8.03;81.14
68301;BME280;55146;47.468;18.806;2023-04-20T02:40:27;99938.66;;;8.03;81.11
68301;BME280;55146;47.468;18.806;2023-04-20T02:42:53;99934.81;;;7.99;80.95
68301;BME280;55146;47.468;18.806;2023-04-20T02:45:18;99936.44;;;7.95;80.63
68301;BME280;55146;47.468;18.806;2023-04-20T02:47:43;99939.94;;;7.91;80.69
68301;BME280;55146;47.468;18.806;2023-04-20T02:50:09;99932.50;;;7.86;80.84
68301;BME280;55146;47.468;18.806;2023-04-20T02:52:35;99942.84;;;7.79;80.81
68301;BME280;55146;47.468;18.806;2023-04-20T02:55:00;99946.13;;;7.76;80.92
68301;BME280;55146;47.468;18.806;2023-04-20T02:57:26;99938.94;;;7.70;80.90
68301;BME280;55146;47.468;18.806;2023-04-20T02:59:51;99946.31;;;7.69;80.83
68301;BME280;55146;47.468;18.806;2023-04-20T03:02:17;99946.06;;;7.71;81.04
68301;BME280;55146;47.468;18.806;2023-04-20T03:04:42;99948.75;;;7.66;81.30
68301;BME280;55146;47.468;18.806;2023-04-20T03:07:08;99950.09;;;7.63;81.49
68301;BME280;55146;47.468;18.806;2023-04-20T03:09:35;99954.16;;;7.61;81.52
68301;BME280;55146;47.468;18.806;2023-04-20T03:12:01;99960.19;;;7.58;81.74
68301;BME280;55146;47.468;18.806;2023-04-20T03:14:27;99964.00;;;7.57;81.78
68301;BME280;55146;47.468;18.806;2023-04-20T03:16:52;99960.12;;;7.53;81.77
68301;BME280;55146;47.468;18.806;2023-04-20T03:19:17;99955.69;;;7.47;81.86
68301;BME280;55146;47.468;18.806;2023-04-20T03:21:43;99949.63;;;7.45;81.93
68301;BME280;55146;47.468;18.806;2023-04-20T03:24:09;99952.63;;;7.43;82.13
68301;BME280;55146;47.468;18.806;2023-04-20T03:26:35;99955.87;;;7.40;81.88
68301;BME280;55146;47.468;18.806;2023-04-20T03:29:00;99966.00;;;7.40;81.63
68301;BME280;55146;47.468;18.806;2023-04-20T03:31:26;99955.87;;;7.40;81.88
68301;BME280;55146;47.468;18.806;2023-04-20T03:33:51;99959.12;;;7.37;82.12
68301;BME280;55146;47.468;18.806;2023-04-20T03:36:17;99967.09;;;7.39;82.16
68301;BME280;55146;47.468;18.806;2023-04-20T03:38:42;99963.75;;;7.37;81.84
68301;BME280;55146;47.468;18.806;2023-04-20T03:41:07;99969.47;;;7.35;82.13
68301;BME280;55146;47.468;18.806;2023-04-20T03:43:33;99965.88;;;7.29;82.33
68301;BME280;55146;47.468;18.806;2023-04-20T03:45:59;99967.47;;;7.25;82.19
68301;BME280;55146;47.468;18.806;2023-04-20T03:48:24;99972.69;;;7.27;82.20
68301;BME280;55146;47.468;18.806;2023-04-20T03:50:49;99977.34;;;7.26;82.20
68301;BME280;55146;47.468;18.806;2023-04-20T03:53:15;99971.28;;;7.24;82.23
68301;BME280;55146;47.468;18.806;2023-04-20T03:55:40;99975.09;;;7.23;82.21
68301;BME280;55146;47.468;18.806;2023-04-20T03:58:06;99977.59;;;7.25;81.99
68301;BME280;55146;47.468;18.806;2023-04-20T04:00:31;99976.50;;;7.26;82.22
68301;BME280;55146;47.468;18.806;2023-04-20T04:02:57;99975.69;;;7.25;82.45
68301;BME280;55146;47.468;18.806;2023-04-20T04:05:23;99979.50;;;7.24;82.09
68301;BME280;55146;47.468;18.806;2023-04-20T04:07:49;99983.31;;;7.23;82.18
68301;BME280;55146;47.468;18.806;2023-04-20T04:10:14;99975.63;;;7.20;82.39
68301;BME280;55146;47.468;18.806;2023-04-20T04:12:41;99970.66;;;7.17;82.59
68301;BME280;55146;47.468;18.806;2023-04-20T04:15:07;99967.91;;;7.17;82.33
68301;BME280;55146;47.468;18.806;2023-04-20T04:17:33;99973.97;;;7.19;82.37
68301;BME280;55146;47.468;18.806;2023-04-20T04:19:58;99975.63;;;7.20;82.30
68301;BME280;55146;47.468;18.806;2023-04-20T04:22:23;99976.19;;;7.22;82.64
68301;BME280;55146;47.468;18.806;2023-04-20T04:24:49;99981.09;;;7.20;82.91
68301;BME280;55146;47.468;18.806;2023-04-20T04:27:14;99981.16;;;7.25;83.35
68301;BME280;55146;47.468;18.806;2023-04-20T04:29:40;99978.66;;;7.24;83.57
68301;BME280;55146;47.468;18.806;2023-04-20T04:32:06;99986.88;;;7.24;83.66
68301;BME280;55146;47.468;18.806;2023-04-20T04:34:32;99979.19;;;7.21;83.72
68301;BME280;55146;47.468;18.806;2023-04-20T04:36:59;99979.44;;;7.19;83.78
68301;BME280;55146;47.468;18.806;2023-04-20T04:39:26;99984.91;;;7.19;83.99
68301;BME280;55146;47.468;18.806;2023-04-20T04:41:52;99988.28;;;7.26;84.16
68301;BME280;55146;47.468;18.806;2023-04-20T04:44:17;99988.03;;;7.28;84.20
68301;BME280;55146;47.468;18.806;2023-04-20T04:46:42;99986.69;;;7.30;84.53
68301;BME280;55146;47.468;18.806;2023-04-20T04:49:10;99982.62;;;7.33;84.57
68301;BME280;55146;47.468;18.806;2023-04-20T04:51:36;99994.69;;;7.37;84.78
68301;BME280;55146;47.468;18.806;2023-04-20T04:54:01;99990.09;;;7.43;84.70
68301;BME280;55146;47.468;18.806;2023-04-20T04:56:27;99984.19;;;7.51;84.79
68301;BME280;55146;47.468;18.806;2023-04-20T04:58:52;99993.31;;;7.61;84.87
68301;BME280;55146;47.468;18.806;2023-04-20T05:01:18;99992.53;;;7.66;84.92
68301;BME280;55146;47.468;18.806;2023-04-20T05:03:43;99983.88;;;7.74;84.95
68301;BME280;55146;47.468;18.806;2023-04-20T05:06:09;99988.56;;;7.79;84.81
68301;BME280;55146;47.468;18.806;2023-04-20T05:08:34;99984.25;;;7.83;84.93
68301;BME280;55146;47.468;18.806;2023-04-20T05:10:59;99988.34;;;7.85;84.72
68301;BME280;55146;47.468;18.806;2023-04-20T05:13:25;99985.41;;;7.92;85.16
68301;BME280;55146;47.468;18.806;2023-04-20T05:15:50;99995.91;;;8.00;85.45
68301;BME280;55146;47.468;18.806;2023-04-20T05:18:15;99992.84;;;7.96;85.43
68301;BME280;55146;47.468;18.806;2023-04-20T05:20:41;99992.91;;;8.01;85.88
68301;BME280;55146;47.468;18.806;2023-04-20T05:23:06;99984.72;;;8.06;86.04
68301;BME280;55146;47.468;18.806;2023-04-20T05:25:32;99985.59;;;8.12;85.76
68301;BME280;55146;47.468;18.806;2023-04-20T05:27:57;99994.97;;;8.21;85.44
68301;BME280;55146;47.468;18.806;2023-04-20T05:30:23;99992.59;;;8.30;85.43
68301;BME280;55146;47.468;18.806;2023-04-20T05:32:49;99997.31;;;8.34;85.41
68301;BME280;55146;47.468;18.806;2023-04-20T05:35:14;99999.00;;;8.40;85.38
68301;BME280;55146;47.468;18.806;2023-04-20T05:37:40;99996.59;;;8.44;85.09
68301;BME280;55146;47.468;18.806;2023-04-20T05:40:06;99997.19;;;8.51;84.98
68301;BME280;55146;47.468;18.806;2023-04-20T05:42:32;99997.75;;;8.58;84.98
68301;BME280;55146;47.468;18.806;2023-04-20T05:44:57;100000.00;;;8.61;84.47
68301;BME280;55146;47.468;18.806;2023-04-20T05:47:22;100002.50;;;8.68;84.73
68301;BME280;55146;47.468;18.806;2023-04-20T05:49:48;100002.28;;;8.74;84.34
68301;BME280;55146;47.468;18.806;2023-04-20T05:52:13;100000.13;;;8.81;84.52
68301;BME280;55146;47.468;18.806;2023-04-20T05:54:38;99995.50;;;8.87;84.46
68301;BME280;55146;47.468;18.806;2023-04-20T05:57:03;99996.38;;;8.98;84.52
68301;BME280;55146;47.468;18.806;2023-04-20T05:59:30;99998.63;;;9.06;85.40
68301;BME280;55146;47.468;18.806;2023-04-20T06:01:55;99999.75;;;9.15;85.45
68301;BME280;55146;47.468;18.806;2023-04-20T06:04:21;100012.69;;;9.24;85.22
68301;BME280;55146;47.468;18.806;2023-04-20T06:06:46;100012.75;;;9.40;85.91
68301;BME280;55146;47.468;18.806;2023-04-20T06:09:12;100021.88;;;9.55;86.43
68301;BME280;55146;47.468;18.806;2023-04-20T06:11:38;100022.16;;;9.64;86.28
68301;BME280;55146;47.468;18.806;2023-04-20T06:14:04;100016.16;;;9.77;86.45
68301;BME280;55146;47.468;18.806;2023-04-20T06:16:29;100014.03;;;9.99;86.36
68301;BME280;55146;47.468;18.806;2023-04-20T06:18:54;100016.00;;;10.29;84.84
68301;BME280;55146;47.468;18.806;2023-04-20T06:21:20;100016.81;;;10.50;83.46
68301;BME280;55146;47.468;18.806;2023-04-20T06:23:45;100018.72;;;10.75;82.92
68301;BME280;55146;47.468;18.806;2023-04-20T06:26:10;100019.75;;;11.09;80.82
68301;BME280;55146;47.468;18.806;2023-04-20T06:28:36;100015.50;;;11.37;80.80
68301;BME280;55146;47.468;18.806;2023-04-20T06:31:02;100025.59;;;11.62;80.45
68301;BME280;55146;47.468;18.806;2023-04-20T06:33:28;100017.50;;;11.91;79.93
68301;BME280;55146;47.468;18.806;2023-04-20T06:35:53;100029.16;;;12.16;78.50
68301;BME280;55146;47.468;18.806;2023-04-20T06:38:21;100018.19;;;12.45;77.48
68301;BME280;55146;47.468;18.806;2023-04-20T06:40:46;100018.00;;;12.66;76.20
68301;BME280;55146;47.468;18.806;2023-04-20T06:43:11;100020.22;;;12.92;75.08
68301;BME280;55146;47.468;18.806;2023-04-20T06:45:37;100016.34;;;13.22;72.60
68301;BME280;55146;47.468;18.806;2023-04-20T06:48:02;100015.34;;;13.37;72.09
68301;BME280;55146;47.468;18.806;2023-04-20T06:50:28;100022.88;;;13.55;71.56
68301;BME280;55146;47.468;18.806;2023-04-20T06:52:53;100019.75;;;13.62;71.79
68301;BME280;55146;47.468;18.806;2023-04-20T06:55:18;100024.94;;;13.87;71.95
68301;BME280;55146;47.468;18.806;2023-04-20T07:00:10;100025.69;;;14.95;67.53
68301;BME280;55146;47.468;18.806;2023-04-20T07:02:43;100025.69;;;14.95;67.53
68301;BME280;55146;47.468;18.806;2023-04-20T07:05:09;100025.28;;;14.55;67.97
68301;BME280;55146;47.468;18.806;2023-04-20T07:07:35;100021.03;;;14.77;67.91
68301;BME280;55146;47.468;18.806;2023-04-20T07:10:00;100024.47;;;15.01;68.55
68301;BME280;55146;47.468;18.806;2023-04-20T07:12:26;100018.12;;;15.28;65.55
68301;BME280;55146;47.468;18.806;2023-04-20T07:14:51;100017.94;;;15.52;64.35
68301;BME280;55146;47.468;18.806;2023-04-20T07:17:17;100014.00;;;15.80;64.91
68301;BME280;55146;47.468;18.806;2023-04-20T07:19:42;100013.78;;;16.04;65.92
68301;BME280;55146;47.468;18.806;2023-04-20T07:22:07;100010.94;;;16.17;63.43
68301;BME280;55146;47.468;18.806;2023-04-20T07:24:32;100017.97;;;16.37;63.74
68301;BME280;55146;47.468;18.806;2023-04-20T07:26:58;100019.31;;;16.62;64.22
68301;BME280;55146;47.468;18.806;2023-04-20T07:29:23;100012.97;;;16.92;62.40
68301;BME280;55146;47.468;18.806;2023-04-20T07:31:48;100015.84;;;17.10;61.22
68301;BME280;55146;47.468;18.806;2023-04-20T07:34:14;100014.81;;;17.28;60.44
68301;BME280;55146;47.468;18.806;2023-04-20T07:36:39;100013.37;;;17.48;62.12
68301;BME280;55146;47.468;18.806;2023-04-20T07:39:04;100016.59;;;17.63;60.45
68301;BME280;55146;47.468;18.806;2023-04-20T07:41:30;100017.75;;;17.79;58.59
68301;BME280;55146;47.468;18.806;2023-04-20T07:43:55;100010.75;;;17.99;58.28
68301;BME280;55146;47.468;18.806;2023-04-20T07:46:21;100011.56;;;18.08;56.22
68301;BME280;55146;47.468;18.806;2023-04-20T07:48:47;100018.97;;;18.13;58.57
68301;BME280;55146;47.468;18.806;2023-04-20T07:51:12;100012.41;;;18.26;56.41
68301;BME280;55146;47.468;18.806;2023-04-20T07:53:38;100013.56;;;18.42;54.68
68301;BME280;55146;47.468;18.806;2023-04-20T07:56:03;100010.44;;;18.44;55.22
68301;BME280;55146;47.468;18.806;2023-04-20T07:58:29;100010.44;;;18.44;57.39
68301;BME280;55146;47.468;18.806;2023-04-20T08:00:54;100012.59;;;18.55;54.37
68301;BME280;55146;47.468;18.806;2023-04-20T08:03:19;100014.97;;;18.91;54.34
68301;BME280;55146;47.468;18.806;2023-04-20T08:05:45;100013.25;;;19.16;52.58
68301;BME280;55146;47.468;18.806;2023-04-20T08:08:10;100015.97;;;19.33;51.57
68301;BME280;55146;47.468;18.806;2023-04-20T08:10:36;100000.84;;;19.43;51.50
68301;BME280;55146;47.468;18.806;2023-04-20T08:13:01;100012.59;;;19.57;51.82
68301;BME280;55146;47.468;18.806;2023-04-20T08:15:27;100009.00;;;19.86;50.19
68301;BME280;55146;47.468;18.806;2023-04-20T08:17:52;100001.91;;;19.89;49.50
68301;BME280;55146;47.468;18.806;2023-04-20T08:20:18;100011.19;;;19.81;49.83
68301;BME280;55146;47.468;18.806;2023-04-20T08:22:43;100006.78;;;19.71;48.87
68301;BME280;55146;47.468;18.806;2023-04-20T08:25:09;100000.22;;;19.96;50.48
68301;BME280;55146;47.468;18.806;2023-04-20T08:27:34;100009.84;;;20.07;47.08
68301;BME280;55146;47.468;18.806;2023-04-20T08:30:00;100006.69;;;19.88;47.54
68301;BME280;55146;47.468;18.806;2023-04-20T08:32:26;100002.19;;;19.96;46.69
68301;BME280;55146;47.468;18.806;2023-04-20T08:34:52;100010.91;;;19.94;48.14
68301;BME280;55146;47.468;18.806;2023-04-20T08:37:18;100005.28;;;20.03;46.30
68301;BME280;55146;47.468;18.806;2023-04-20T08:39:44;100002.28;;;20.08;50.29
68301;BME280;55146;47.468;18.806;2023-04-20T08:42:10;100007.19;;;20.32;50.53
68301;BME280;55146;47.468;18.806;2023-04-20T08:44:35;100008.84;;;20.53;48.09
68301;BME280;55146;47.468;18.806;2023-04-20T08:47:01;100000.03;;;20.64;46.61
68301;BME280;55146;47.468;18.806;2023-04-20T08:49:27;100009.00;;;20.69;46.94
68301;BME280;55146;47.468;18.806;2023-04-20T08:51:56;99999.59;;;20.74;47.44
68301;BME280;55146;47.468;18.806;2023-04-20T08:54:22;100002.06;;;20.87;45.64
68301;BME280;55146;47.468;18.806;2023-04-20T08:56:47;100004.78;;;20.96;45.99
68301;BME280;55146;47.468;18.806;2023-04-20T08:59:14;99996.69;;;21.15;47.10
68301;BME280;55146;47.468;18.806;2023-04-20T09:01:41;100001.16;;;21.28;43.77
68301;BME280;55146;47.468;18.806;2023-04-20T09:06:46;99999.75;;;21.59;45.38
68301;BME280;55146;47.468;18.806;2023-04-20T09:09:11;99997.19;;;21.66;45.05
68301;BME280;55146;47.468;18.806;2023-04-20T09:11:37;99999.03;;;21.74;42.25
68301;BME280;55146;47.468;18.806;2023-04-20T09:14:04;99991.78;;;21.85;43.71
68301;BME280;55146;47.468;18.806;2023-04-20T09:16:31;99994.16;;;21.95;42.43
68301;BME280;55146;47.468;18.806;2023-04-20T09:18:58;99990.66;;;21.62;41.70
68301;BME280;55146;47.468;18.806;2023-04-20T09:21:25;99996.16;;;21.58;43.45
68301;BME280;55146;47.468;18.806;2023-04-20T09:24:00;99995.41;;;21.86;41.95
68301;BME280;55146;47.468;18.806;2023-04-20T09:26:27;99991.81;;;22.09;44.65
68301;BME280;55146;47.468;18.806;2023-04-20T09:28:52;99982.84;;;22.32;42.66
68301;BME280;55146;47.468;18.806;2023-04-20T09:31:22;99992.87;;;22.33;42.15
68301;BME280;55146;47.468;18.806;2023-04-20T09:33:57;99993.28;;;22.19;39.25
68301;BME280;55146;47.468;18.806;2023-04-20T09:36:23;99988.66;;;21.99;39.66
68301;BME280;55146;47.468;18.806;2023-04-20T09:39:04;99987.69;;;21.95;41.98
68301;BME280;55146;47.468;18.806;2023-04-20T09:41:31;99989.00;;;21.97;39.56
68301;BME280;55146;47.468;18.806;2023-04-20T09:43:57;99991.66;;;21.94;42.03
68301;BME280;55146;47.468;18.806;2023-04-20T09:46:23;99976.63;;;21.98;40.61
68301;BME280;55146;47.468;18.806;2023-04-20T09:48:49;99985.00;;;22.10;42.07
68301;BME280;55146;47.468;18.806;2023-04-20T09:51:15;99978.06;;;22.32;41.47
68301;BME280;55146;47.468;18.806;2023-04-20T09:53:40;99978.87;;;22.33;39.94
68301;BME280;55146;47.468;18.806;2023-04-20T09:56:06;99981.78;;;22.36;39.00
68301;BME280;55146;47.468;18.806;2023-04-20T09:58:33;99974.53;;;22.35;40.84
68301;BME280;55146;47.468;18.806;2023-04-20T10:01:00;99977.13;;;22.56;40.47
68301;BME280;55146;47.468;18.806;2023-04-20T10:03:25;99976.19;;;22.64;39.85
68301;BME280;55146;47.468;18.806;2023-04-20T10:05:51;99980.03;;;22.59;40.16
68301;BME280;55146;47.468;18.806;2023-04-20T10:08:20;99972.66;;;22.39;41.10
68301;BME280;55146;47.468;18.806;2023-04-20T10:10:47;99971.88;;;22.54;41.93
68301;BME280;55146;47.468;18.806;2023-04-20T10:13:14;99976.19;;;22.64;39.01
68301;BME280;55146;47.468;18.806;2023-04-20T10:15:41;99971.25;;;22.73;39.11
68301;BME280;55146;47.468;18.806;2023-04-20T10:18:20;99966.66;;;22.96;40.86
68301;BME280;55146;47.468;18.806;2023-04-20T10:20:47;99970.72;;;22.83;39.46
68301;BME280;55146;47.468;18.806;2023-04-20T10:23:13;99958.84;;;22.74;40.01
68301;BME280;55146;47.468;18.806;2023-04-20T10:25:40;99965.13;;;22.83;40.23
68301;BME280;55146;47.468;18.806;2023-04-20T10:28:07;99963.37;;;22.79;38.46
68301;BME280;55146;47.468;18.806;2023-04-20T10:30:36;99960.94;;;22.49;39.76
68301;BME280;55146;47.468;18.806;2023-04-20T10:33:13;99959.19;;;22.17;40.98
68301;BME280;55146;47.468;18.806;2023-04-20T10:35:45;99955.87;;;21.75;40.73
68301;BME280;55146;47.468;18.806;2023-04-20T10:38:11;99951.47;;;21.50;39.81
68301;BME280;55146;47.468;18.806;2023-04-20T10:40:37;99960.09;;;21.20;40.95
68301;BME280;55146;47.468;18.806;2023-04-20T10:43:02;99948.88;;;21.08;42.16
68301;BME280;55146;47.468;18.806;2023-04-20T10:45:35;99954.97;;;20.77;43.71
68301;BME280;55146;47.468;18.806;2023-04-20T10:48:10;99943.78;;;20.65;42.16
68301;BME280;55146;47.468;18.806;2023-04-20T10:50:36;99953.28;;;20.52;45.31
68301;BME280;55146;47.468;18.806;2023-04-20T10:53:02;99940.16;;;20.65;42.98
68301;BME280;55146;47.468;18.806;2023-04-20T10:55:31;99936.28;;;21.02;43.10
68301;BME280;55146;47.468;18.806;2023-04-20T10:57:56;99938.41;;;21.29;42.53
68301;BME280;55146;47.468;18.806;2023-04-20T11:00:24;99934.19;;;21.35;39.98
68301;BME280;55146;47.468;18.806;2023-04-20T11:02:52;99926.50;;;21.45;41.21
68301;BME280;55146;47.468;18.806;2023-04-20T11:05:18;99926.16;;;21.58;40.95
68301;BME280;55146;47.468;18.806;2023-04-20T11:07:54;99928.72;;;21.63;42.04
68301;BME280;55146;47.468;18.806;2023-04-20T11:10:21;99929.38;;;21.85;42.51
68301;BME280;55146;47.468;18.806;2023-04-20T11:12:47;99926.03;;;22.19;42.70
68301;BME280;55146;47.468;18.806;2023-04-20T11:15:13;99929.78;;;22.39;40.09
68301;BME280;55146;47.468;18.806;2023-04-20T11:17:38;99920.66;;;22.42;39.12
68301;BME280;55146;47.468;18.806;2023-04-20T11:20:12;99919.69;;;22.22;39.30
68301;BME280;55146;47.468;18.806;2023-04-20T11:22:43;99912.75;;;22.04;39.30
68301;BME280;55146;47.468;18.806;2023-04-20T11:25:10;99916.56;;;21.71;42.12
68301;BME280;55146;47.468;18.806;2023-04-20T11:27:37;99909.81;;;21.48;42.15
68301;BME280;55146;47.468;18.806;2023-04-20T11:30:04;99917.06;;;21.25;42.40
68301;BME280;55146;47.468;18.806;2023-04-20T11:32:33;99907.25;;;21.07;42.59
68301;BME280;55146;47.468;18.806;2023-04-20T11:35:00;99920.06;;;21.08;41.85
68301;BME280;55146;47.468;18.806;2023-04-20T11:37:26;99906.19;;;20.99;42.01
68301;BME280;55146;47.468;18.806;2023-04-20T11:40:18;99910.16;;;20.86;40.77
68301;BME280;55146;47.468;18.806;2023-04-20T11:42:43;99916.41;;;20.71;43.70
68301;BME280;55146;47.468;18.806;2023-04-20T11:45:09;99918.84;;;20.60;43.61
68301;BME280;55146;47.468;18.806;2023-04-20T11:47:36;99915.22;;;20.59;44.60
68301;BME280;55146;47.468;18.806;2023-04-20T11:50:02;99917.06;;;20.55;44.23
68301;BME280;55146;47.468;18.806;2023-04-20T11:52:27;99915.31;;;20.51;43.43
68301;BME280;55146;47.468;18.806;2023-04-20T11:54:52;99916.81;;;20.48;43.78
68301;BME280;55146;47.468;18.806;2023-04-20T11:57:18;99916.50;;;20.29;44.46
68301;BME280;55146;47.468;18.806;2023-04-20T11:59:45;99918.75;;;20.15;45.27
68301;BME280;55146;47.468;18.806;2023-04-20T12:02:13;99919.31;;;20.08;43.99
68301;BME280;55146;47.468;18.806;2023-04-20T12:04:39;99910.16;;;20.20;44.33
68301;BME280;55146;47.468;18.806;2023-04-20T12:07:04;99909.69;;;20.18;44.35
68301;BME280;55146;47.468;18.806;2023-04-20T12:09:30;99911.31;;;20.19;45.70
68301;BME280;55146;47.468;18.806;2023-04-20T12:11:59;99912.88;;;20.29;44.59
68301;BME280;55146;47.468;18.806;2023-04-20T12:14:26;99902.34;;;20.34;45.79
68301;BME280;55146;47.468;18.806;2023-04-20T12:16:51;99909.34;;;20.40;43.21
68301;BME280;55146;47.468;18.806;2023-04-20T12:19:16;99908.13;;;20.29;44.44
68301;BME280;55146;47.468;18.806;2023-04-20T12:21:42;99905.12;;;20.34;44.05
68301;BME280;55146;47.468;18.806;2023-04-20T12:24:08;99896.75;;;20.34;42.84
68301;BME280;55146;47.468;18.806;2023-04-20T12:26:33;99899.31;;;20.39;43.91
68301;BME280;55146;47.468;18.806;2023-04-20T12:29:00;99898.00;;;20.82;45.77
68301;BME280;55146;47.468;18.806;2023-04-20T12:31:26;99892.56;;;21.10;41.45
68301;BME280;55146;47.468;18.806;2023-04-20T12:33:51;99889.44;;;21.23;40.92
68301;BME280;55146;47.468;18.806;2023-04-20T12:36:16;99886.41;;;21.04;41.43
68301;BME280;55146;47.468;18.806;2023-04-20T12:38:42;99888.25;;;21.12;44.22
68301;BME280;55146;47.468;18.806;2023-04-20T12:41:12;99882.06;;;20.94;40.01
68301;BME280;55146;47.468;18.806;2023-04-20T12:43:38;99883.59;;;20.80;40.68
68301;BME280;55146;47.468;18.806;2023-04-20T12:46:03;99885.66;;;20.71;40.99
68301;BME280;55146;47.468;18.806;2023-04-20T12:48:29;99883.66;;;20.59;40.71
68301;BME280;55146;47.468;18.806;2023-04-20T12:50:54;99878.97;;;20.51;44.09